Time;durP1;ratioP1;P1;durP2;ratioP2;P2;SDS_P1;SDS_P2;PMS_P1;PMS_P2;Temp;Humidity;BMP_temperature;BMP_pressure;BME280_temperature;BME280_humidity;BME280_pressure;Samples;Min_cycle;Max_cycle;Signal;HPM_P1;HPM_P2
2022/11/05 00:09:31;;;;;;;2.33;2.03;;;8.90;99.90;;;;;;5070835;28;20188;-37
2022/11/05 00:17:37;;;;;;;5.90;3.20;;;8.90;99.90;;;;;;5070539;28;20238;-39
2022/11/05 00:20:05;;;;;;;5.20;3.53;;;9.00;99.90;;;;;;5053918;28;20177;-39
2022/11/05 00:25:16;;;;;;;3.13;2.23;;;9.00;99.90;;;;;;5070551;28;20246;-37
2022/11/05 00:27:44;;;;;;;3.33;1.90;;;9.00;99.90;;;;;;5053639;28;20181;-38
2022/11/05 00:30:11;;;;;;;2.23;1.97;;;8.90;99.90;;;;;;5053916;28;20193;-39
2022/11/05 00:32:37;;;;;;;3.13;2.10;;;9.00;99.90;;;;;;5070048;28;20271;-36
2022/11/05 00:35:04;;;;;;;2.80;2.07;;;9.00;99.90;;;;;;5070334;28;20177;-36
2022/11/05 00:37:30;;;;;;;4.80;2.33;;;8.90;99.90;;;;;;5069912;28;20185;-37
2022/11/05 00:39:56;;;;;;;2.63;2.03;;;9.00;99.90;;;;;;5053953;28;20230;-38
2022/11/05 00:45:06;;;;;;;5.00;2.03;;;9.00;99.90;;;;;;5070194;28;20181;-36
2022/11/05 00:50:21;;;;;;;2.97;1.70;;;8.90;99.90;;;;;;5070177;28;20192;-36
2022/11/05 00:52:54;;;;;;;3.03;1.70;;;9.00;99.90;;;;;;5070141;28;20207;-36
2022/11/05 00:55:21;;;;;;;2.83;2.00;;;9.00;99.90;;;;;;5053409;28;20177;-38
2022/11/05 00:57:47;;;;;;;3.03;1.87;;;9.00;99.90;;;;;;5070101;28;20278;-38
2022/11/05 01:00:13;;;;;;;2.30;1.93;;;9.00;99.90;;;;;;5071502;28;20189;-38
2022/11/05 01:02:39;;;;;;;2.20;1.90;;;9.00;99.90;;;;;;5070587;28;20201;-37
2022/11/05 01:05:05;;;;;;;2.53;2.00;;;9.00;99.90;;;;;;5053353;28;20196;-36
2022/11/05 01:07:31;;;;;;;2.57;2.03;;;9.00;99.90;;;;;;5053215;28;20184;-37
2022/11/05 01:09:57;;;;;;;2.37;2.03;;;9.00;99.90;;;;;;5069966;28;20189;-37
2022/11/05 01:12:23;;;;;;;3.27;2.20;;;9.00;99.90;;;;;;5052975;28;20216;-37
2022/11/05 01:14:48;;;;;;;3.03;2.33;;;9.00;99.90;;;;;;5069628;28;20181;-37
2022/11/05 01:17:14;;;;;;;2.03;1.87;;;9.00;99.90;;;;;;5052634;28;20174;-38
2022/11/05 01:19:40;;;;;;;2.83;2.40;;;9.00;99.90;;;;;;5053329;28;20184;-36
2022/11/05 01:22:06;;;;;;;3.30;2.80;;;9.00;99.90;;;;;;5092420;22;20247;-84
2022/11/05 01:24:32;;;;;;;2.70;2.13;;;9.00;99.90;;;;;;5014457;28;20211;-84
2022/11/05 01:26:58;;;;;;;3.00;2.33;;;9.00;99.90;;;;;;5031680;28;20181;-84
2022/11/05 01:29:24;;;;;;;3.43;2.50;;;9.00;99.90;;;;;;5031324;28;20528;-84
2022/11/05 01:31:50;;;;;;;3.57;2.13;;;9.00;99.90;;;;;;5031129;28;20219;-84
2022/11/05 01:34:15;;;;;;;3.67;2.30;;;9.00;99.90;;;;;;5047914;28;20198;-84
2022/11/05 01:36:41;;;;;;;2.60;2.20;;;9.10;99.90;;;;;;5031105;28;20201;-84
2022/11/05 01:39:07;;;;;;;2.60;2.40;;;9.00;99.90;;;;;;5031278;28;20202;-84
2022/11/05 01:41:33;;;;;;;2.80;2.00;;;9.00;99.90;;;;;;5031314;28;20187;-84
2022/11/05 01:44:02;;;;;;;3.30;2.60;;;9.00;99.90;;;;;;5031119;28;20256;-84
2022/11/05 01:46:37;;;;;;;3.10;2.17;;;9.00;99.90;;;;;;5048129;28;20189;-84
2022/11/05 01:49:23;;;;;;;2.53;2.13;;;9.10;99.90;;;;;;5030603;28;20182;-84
2022/11/05 01:51:50;;;;;;;2.50;2.20;;;9.00;99.90;;;;;;5047131;28;20283;-84
2022/11/05 01:54:19;;;;;;;2.23;2.03;;;9.00;99.90;;;;;;5030713;28;20221;-84
2022/11/05 01:56:59;;;;;;;3.13;2.47;;;9.00;99.90;;;;;;5047510;28;20197;-84
2022/11/05 01:59:36;;;;;;;3.83;2.47;;;9.00;99.90;;;;;;5032285;28;20232;-84
2022/11/05 02:02:05;;;;;;;1.93;1.83;;;9.00;99.90;;;;;;5035341;28;20186;-84
2022/11/05 02:04:40;;;;;;;2.63;2.43;;;8.90;99.90;;;;;;5034750;28;20210;-84
2022/11/05 02:07:09;;;;;;;2.27;1.97;;;8.90;99.90;;;;;;5034855;28;20178;-84
2022/11/05 02:09:47;;;;;;;2.83;2.30;;;8.90;99.90;;;;;;5051559;28;20182;-84
2022/11/05 02:12:14;;;;;;;3.57;2.40;;;8.90;99.90;;;;;;5035317;28;20198;-84
2022/11/05 02:14:40;;;;;;;2.60;2.40;;;8.90;99.90;;;;;;5034703;28;20198;-84
2022/11/05 02:17:44;;;;;;;3.60;2.20;;;8.90;99.90;;;;;;5034524;28;20179;-84
2022/11/05 02:20:19;;;;;;;2.90;2.60;;;8.90;99.90;;;;;;5008010;28;20186;-84
2022/11/05 02:23:10;;;;;;;2.47;2.27;;;8.90;99.90;;;;;;5034453;28;20186;-84
2022/11/05 02:26:07;;;;;;;2.57;2.30;;;8.90;99.90;;;;;;5034604;28;20175;-84
2022/11/05 02:29:02;;;;;;;4.63;2.70;;;8.90;99.90;;;;;;5034362;28;20182;-84
2022/11/05 02:31:45;;;;;;;2.40;2.20;;;8.90;99.90;;;;;;5017316;28;20309;-84
2022/11/05 02:34:39;;;;;;;3.60;2.53;;;8.90;99.90;;;;;;5032562;28;20194;-84
2022/11/05 02:37:39;;;;;;;2.87;2.20;;;8.90;99.90;;;;;;5014431;28;20255;-84
2022/11/05 02:40:22;;;;;;;3.53;2.63;;;8.90;99.90;;;;;;4987061;28;20190;-84
2022/11/05 02:42:57;;;;;;;4.20;2.97;;;8.90;99.90;;;;;;5014553;28;20182;-84
2022/11/05 02:45:29;;;;;;;9.10;3.63;;;8.90;99.90;;;;;;5014600;28;20266;-84
2022/11/05 02:48:04;;;;;;;3.23;2.90;;;8.90;99.90;;;;;;5014450;28;20175;-84
2022/11/05 02:50:38;;;;;;;3.53;2.90;;;8.90;99.90;;;;;;5014377;28;20167;-84
2022/11/05 02:53:14;;;;;;;3.43;2.40;;;8.90;99.90;;;;;;5014427;28;20272;-84
2022/11/05 02:56:08;;;;;;;3.97;2.80;;;8.90;99.90;;;;;;5014623;28;20175;-84
2022/11/05 02:58:34;;;;;;;3.90;2.90;;;8.90;99.90;;;;;;5014167;28;20237;-84
2022/11/05 03:01:05;;;;;;;4.87;2.57;;;8.90;99.90;;;;;;5014590;28;20186;-84
2022/11/05 03:03:37;;;;;;;2.80;2.50;;;8.90;99.90;;;;;;5014045;28;20203;-84
2022/11/05 03:06:32;;;;;;;4.20;2.20;;;8.80;99.90;;;;;;5014208;28;20198;-84
2022/11/05 03:09:04;;;;;;;2.73;2.53;;;8.80;99.90;;;;;;5029302;28;20286;-84
2022/11/05 03:11:38;;;;;;;3.40;2.97;;;8.80;99.90;;;;;;5029457;28;20241;-84
2022/11/05 03:14:17;;;;;;;2.67;2.20;;;8.80;99.90;;;;;;5014077;28;20201;-84
2022/11/05 03:16:53;;;;;;;2.93;2.50;;;8.80;99.90;;;;;;5013700;28;20172;-84
2022/11/05 03:19:24;;;;;;;2.80;2.10;;;8.80;99.90;;;;;;5014295;28;20171;-84
2022/11/05 03:22:01;;;;;;;2.73;2.33;;;8.90;99.90;;;;;;5014116;28;20171;-84
2022/11/05 03:24:33;;;;;;;2.70;2.10;;;8.90;99.90;;;;;;5013662;28;20211;-84
2022/11/05 03:27:07;;;;;;;3.07;2.20;;;8.80;99.90;;;;;;5013546;28;20180;-85
2022/11/05 03:29:58;;;;;;;3.00;2.70;;;8.80;99.90;;;;;;5030234;28;20194;-85
2022/11/05 03:32:26;;;;;;;3.27;2.70;;;8.80;99.90;;;;;;5013673;28;20199;-84
2022/11/05 03:35:06;;;;;;;2.67;2.43;;;8.80;99.90;;;;;;5033290;28;20198;-85
2022/11/05 03:37:36;;;;;;;3.17;2.83;;;8.80;99.90;;;;;;5033215;28;20214;-84
2022/11/05 03:40:07;;;;;;;2.63;2.43;;;8.80;99.90;;;;;;5033710;28;20187;-84
2022/11/05 03:42:36;;;;;;;3.07;2.83;;;8.80;99.90;;;;;;5033480;28;20183;-85
2022/11/05 03:45:15;;;;;;;3.10;2.80;;;8.80;99.90;;;;;;5033332;28;20207;-84
2022/11/05 03:47:43;;;;;;;3.33;2.53;;;8.80;99.90;;;;;;5049811;28;20166;-84
2022/11/05 03:50:12;;;;;;;3.77;2.57;;;8.80;99.90;;;;;;5033078;28;20185;-84
2022/11/05 03:52:52;;;;;;;3.83;2.70;;;8.80;99.90;;;;;;5033198;28;20205;-84
2022/11/05 03:55:24;;;;;;;2.80;2.50;;;8.90;99.90;;;;;;5033047;28;20179;-84
2022/11/05 03:57:51;;;;;;;3.07;2.67;;;8.90;99.90;;;;;;5032919;28;20178;-84
2022/11/05 04:00:17;;;;;;;2.97;2.40;;;8.90;99.90;;;;;;5049304;28;20178;-84
2022/11/05 04:02:43;;;;;;;3.07;2.60;;;8.90;99.90;;;;;;5032786;28;20183;-84
2022/11/05 04:05:09;;;;;;;3.83;2.37;;;8.90;99.90;;;;;;5032804;28;20186;-84
2022/11/05 04:18:35;;;;;;;2.93;2.63;;;8.90;99.90;;;;;;5048885;28;20183;-84
2022/11/05 04:26:32;;;;;;;3.67;2.93;;;8.90;99.90;;;;;;5049216;28;20190;-84
2022/11/05 04:31:42;;;;;;;2.83;2.63;;;8.90;99.90;;;;;;5047441;28;20681;-84
2022/11/05 04:34:07;;;;;;;3.63;2.37;;;8.80;99.90;;;;;;5030700;28;20280;-84
2022/11/05 04:36:33;;;;;;;2.80;2.60;;;8.90;99.90;;;;;;5012708;28;20179;-84
2022/11/05 04:38:59;;;;;;;2.67;2.43;;;8.80;99.90;;;;;;5011994;28;20202;-84
2022/11/05 04:41:41;;;;;;;2.93;2.43;;;8.80;99.90;;;;;;5012682;28;20176;-84
2022/11/05 04:44:07;;;;;;;2.80;2.47;;;8.80;99.90;;;;;;4995952;28;20703;-84
2022/11/05 04:46:33;;;;;;;3.20;2.90;;;8.90;99.90;;;;;;5012264;28;20183;-84
2022/11/05 04:48:59;;;;;;;2.83;2.53;;;8.90;99.90;;;;;;5012157;28;20183;-84
2022/11/05 04:51:26;;;;;;;2.93;2.30;;;8.90;99.90;;;;;;5012337;28;20211;-84
2022/11/05 04:53:52;;;;;;;3.10;2.27;;;8.90;99.90;;;;;;5012055;28;20203;-84
2022/11/05 04:56:23;;;;;;;2.43;2.23;;;8.90;99.90;;;;;;5028703;28;20190;-84
2022/11/05 04:58:49;;;;;;;3.10;2.80;;;8.90;99.90;;;;;;5028670;28;20174;-84
2022/11/05 05:01:18;;;;;;;3.57;3.00;;;8.90;99.90;;;;;;5011995;28;20211;-84
2022/11/05 05:03:49;;;;;;;3.07;2.77;;;8.90;99.90;;;;;;5012021;28;20206;-84
2022/11/05 05:06:16;;;;;;;3.20;2.90;;;8.90;99.90;;;;;;5011845;28;20195;-84
2022/11/05 05:08:42;;;;;;;2.70;2.50;;;8.90;99.90;;;;;;5011955;28;20230;-84
2022/11/05 05:11:10;;;;;;;3.17;2.87;;;8.90;99.90;;;;;;5028296;28;20245;-84
2022/11/05 05:13:36;;;;;;;3.47;3.00;;;9.00;99.90;;;;;;5028291;28;20199;-84
2022/11/05 05:16:16;;;;;;;3.50;2.93;;;9.00;99.90;;;;;;5011866;28;20233;-84
2022/11/05 05:18:41;;;;;;;4.47;3.30;;;8.90;99.90;;;;;;5010840;28;20260;-84
2022/11/05 05:23:53;;;;;;;3.97;3.57;;;8.90;99.90;;;;;;5028186;28;20214;-84
2022/11/05 05:26:18;;;;;;;5.43;3.23;;;8.90;99.90;;;;;;5011619;28;20190;-84
2022/11/05 05:28:44;;;;;;;3.03;2.80;;;8.90;99.90;;;;;;5011547;28;20175;-84
2022/11/05 05:31:10;;;;;;;3.67;3.33;;;8.90;99.90;;;;;;5011390;28;20250;-84
2022/11/05 05:33:36;;;;;;;3.43;3.13;;;8.90;99.90;;;;;;5011294;28;20206;-83
2022/11/05 05:36:02;;;;;;;4.63;3.37;;;9.00;99.90;;;;;;5014710;28;20186;-84
2022/11/05 05:38:28;;;;;;;4.67;3.50;;;9.00;99.90;;;;;;5031160;28;20178;-84
2022/11/05 05:40:58;;;;;;;3.30;3.00;;;9.00;99.90;;;;;;5031041;28;20178;-84
2022/11/05 05:43:25;;;;;;;3.63;3.00;;;8.90;99.90;;;;;;5031387;28;20286;-84
2022/11/05 05:45:50;;;;;;;2.83;2.53;;;8.90;99.90;;;;;;5031257;28;20186;-84
2022/11/05 05:48:16;;;;;;;2.37;2.20;;;8.90;99.90;;;;;;5030689;28;20186;-84
2022/11/05 05:50:42;;;;;;;2.47;2.27;;;8.90;99.90;;;;;;5031071;28;20193;-84
2022/11/05 05:53:08;;;;;;;3.53;1.97;;;8.90;99.90;;;;;;5031287;28;20242;-84
2022/11/05 05:55:34;;;;;;;2.40;2.20;;;8.90;99.90;;;;;;5031090;28;20181;-84
2022/11/05 05:58:03;;;;;;;2.67;2.43;;;8.90;99.90;;;;;;5031256;28;20190;-84
2022/11/05 06:00:28;;;;;;;2.50;2.10;;;8.90;99.90;;;;;;5031033;28;20201;-84
2022/11/05 06:02:55;;;;;;;2.13;1.97;;;8.90;99.90;;;;;;5046945;28;20166;-84
2022/11/05 06:05:21;;;;;;;2.50;2.30;;;8.90;99.90;;;;;;5048068;28;20182;-84
2022/11/05 06:07:54;;;;;;;2.40;2.20;;;8.90;99.90;;;;;;5031202;28;20179;-84
2022/11/05 06:10:20;;;;;;;2.33;2.07;;;8.90;99.90;;;;;;5031290;28;20159;-84
2022/11/05 06:12:46;;;;;;;2.47;2.27;;;9.00;99.90;;;;;;5031154;28;20210;-84
2022/11/05 06:15:12;;;;;;;2.50;2.10;;;9.00;99.90;;;;;;5047946;28;20191;-84
2022/11/05 06:17:38;;;;;;;2.53;2.33;;;9.00;99.90;;;;;;5031921;28;20202;-84
2022/11/05 06:20:04;;;;;;;3.37;2.57;;;9.00;99.90;;;;;;5030544;28;20277;-85
2022/11/05 06:22:30;;;;;;;2.50;2.30;;;9.00;99.90;;;;;;5047542;28;20182;-85
2022/11/05 06:24:56;;;;;;;4.13;3.73;;;9.00;99.90;;;;;;5030879;28;20256;-84
2022/11/05 06:27:22;;;;;;;4.10;3.70;;;8.90;99.90;;;;;;5030499;28;20193;-84
2022/11/05 06:29:47;;;;;;;4.50;3.93;;;8.90;99.90;;;;;;5030906;28;20198;-84
2022/11/05 06:32:13;;;;;;;3.33;2.77;;;8.90;99.90;;;;;;5030979;28;20202;-84
2022/11/05 06:34:39;;;;;;;3.10;2.80;;;8.90;99.90;;;;;;5030718;28;20231;-84
2022/11/05 06:37:05;;;;;;;3.20;2.80;;;8.90;99.90;;;;;;5030805;28;20266;-84
2022/11/05 06:39:31;;;;;;;4.10;2.80;;;8.90;99.90;;;;;;5030657;28;20181;-84
2022/11/05 06:41:57;;;;;;;3.60;3.30;;;8.90;99.90;;;;;;5030799;28;20182;-84
2022/11/05 06:44:22;;;;;;;2.87;2.67;;;8.90;99.90;;;;;;5047444;28;20206;-84
2022/11/05 06:46:48;;;;;;;3.50;2.70;;;8.90;99.90;;;;;;5032017;28;20182;-84
2022/11/05 06:49:14;;;;;;;3.37;3.07;;;8.90;99.90;;;;;;5034670;28;20183;-84
2022/11/05 06:51:40;;;;;;;2.80;2.53;;;8.90;99.90;;;;;;5034359;28;20207;-85
2022/11/05 06:54:07;;;;;;;3.10;2.70;;;8.90;99.90;;;;;;5033814;28;20206;-84
2022/11/05 06:56:33;;;;;;;3.70;3.03;;;8.90;99.90;;;;;;5034139;28;20190;-84
2022/11/05 06:58:59;;;;;;;3.47;2.63;;;8.90;99.90;;;;;;5034042;28;20178;-84
2022/11/05 07:01:25;;;;;;;3.43;2.73;;;8.90;99.90;;;;;;5033979;28;20183;-85
2022/11/05 07:03:51;;;;;;;4.77;3.07;;;8.90;99.90;;;;;;5035027;28;20198;-84
2022/11/05 07:06:16;;;;;;;4.97;3.07;;;8.90;99.90;;;;;;5016553;28;20183;-85
2022/11/05 07:08:42;;;;;;;4.70;2.77;;;8.90;99.90;;;;;;5030590;28;20194;-84
2022/11/05 07:11:08;;;;;;;2.60;1.90;;;8.90;99.90;;;;;;5030360;28;20281;-84
2022/11/05 07:13:34;;;;;;;3.37;2.10;;;8.90;99.90;;;;;;5030181;28;20226;-84
2022/11/05 07:16:00;;;;;;;3.00;2.70;;;8.90;99.90;;;;;;4997656;28;20190;-84
2022/11/05 07:18:26;;;;;;;2.70;2.50;;;8.90;99.90;;;;;;5013657;28;20187;-84
2022/11/05 07:20:52;;;;;;;2.90;2.30;;;8.90;99.90;;;;;;5013988;28;20179;-84
2022/11/05 07:23:17;;;;;;;3.97;2.97;;;8.90;99.90;;;;;;5013761;28;20206;-84
2022/11/05 07:25:43;;;;;;;2.57;2.23;;;8.90;99.90;;;;;;5013792;28;20186;-84
2022/11/05 07:28:10;;;;;;;4.07;1.90;;;8.90;99.90;;;;;;5013519;28;20190;-84
2022/11/05 07:30:36;;;;;;;3.17;1.50;;;8.90;99.90;;;;;;5013908;28;20217;-84
2022/11/05 07:33:03;;;;;;;2.73;1.77;;;8.90;99.90;;;;;;5013874;28;20195;-84
2022/11/05 07:35:29;;;;;;;1.30;1.20;;;8.90;99.90;;;;;;5013496;28;20191;-84
2022/11/05 07:37:55;;;;;;;2.10;1.40;;;8.90;99.90;;;;;;5029826;28;20238;-84
2022/11/05 07:40:22;;;;;;;3.40;1.50;;;8.90;99.90;;;;;;5013597;28;20175;-84
2022/11/05 07:42:51;;;;;;;1.87;1.50;;;8.90;99.90;;;;;;5029881;28;20665;-84
2022/11/05 07:45:17;;;;;;;1.87;1.30;;;8.90;99.90;;;;;;5013671;28;20277;-84
2022/11/05 07:47:47;;;;;;;1.47;1.37;;;9.00;99.90;;;;;;5012891;28;20187;-84
2022/11/05 07:50:14;;;;;;;2.03;1.60;;;9.00;99.90;;;;;;5013148;28;20187;-84
2022/11/05 07:52:40;;;;;;;1.90;1.70;;;9.00;99.90;;;;;;5012911;28;20207;-84
2022/11/05 07:55:07;;;;;;;3.63;1.70;;;9.00;99.90;;;;;;5013079;28;20189;-84
2022/11/05 07:57:40;;;;;;;3.37;1.40;;;9.10;99.90;;;;;;5012669;28;20211;-84
2022/11/05 08:00:07;;;;;;;2.23;1.30;;;9.10;99.90;;;;;;5029488;28;20191;-84
2022/11/05 08:02:38;;;;;;;1.93;1.33;;;9.10;99.90;;;;;;5029414;28;20705;-84
2022/11/05 08:05:04;;;;;;;1.30;1.20;;;9.10;99.90;;;;;;5032814;28;20258;-84
2022/11/05 08:07:30;;;;;;;1.20;1.10;;;9.10;99.90;;;;;;5032440;28;20269;-84
2022/11/05 08:09:56;;;;;;;1.20;1.03;;;9.20;99.90;;;;;;5049402;28;20262;-84
2022/11/05 08:12:22;;;;;;;3.13;1.30;;;9.20;99.90;;;;;;5032467;28;20246;-84
2022/11/05 08:14:48;;;;;;;2.60;1.33;;;9.20;99.90;;;;;;5032880;28;20221;-84
2022/11/05 08:17:14;;;;;;;1.40;1.30;;;9.20;99.90;;;;;;5032204;28;20179;-84
2022/11/05 08:19:40;;;;;;;1.83;1.60;;;9.20;99.90;;;;;;5032436;28;20265;-84
2022/11/05 08:22:05;;;;;;;1.63;1.50;;;9.20;99.90;;;;;;5031835;28;20281;-84
2022/11/05 08:24:31;;;;;;;1.73;1.50;;;9.30;99.90;;;;;;5032160;28;20241;-84
2022/11/05 08:26:57;;;;;;;2.50;1.80;;;9.30;99.90;;;;;;5032139;28;20273;-84
2022/11/05 08:29:23;;;;;;;2.60;2.30;;;9.40;99.90;;;;;;5048833;28;20260;-84
2022/11/05 08:31:49;;;;;;;3.50;2.40;;;9.40;99.90;;;;;;5015765;28;20291;-84
2022/11/05 08:34:15;;;;;;;2.87;2.23;;;9.40;99.90;;;;;;5032136;28;20191;-84
2022/11/05 08:36:45;;;;;;;2.23;1.97;;;9.50;99.90;;;;;;5032155;28;20182;-84
2022/11/05 08:39:12;;;;;;;2.30;1.90;;;9.50;99.90;;;;;;5032009;28;20183;-84
2022/11/05 08:41:39;;;;;;;2.10;1.90;;;9.40;99.90;;;;;;5032129;28;20268;-84
2022/11/05 08:44:07;;;;;;;2.43;1.90;;;9.50;99.90;;;;;;5032003;28;20198;-84
2022/11/05 08:46:36;;;;;;;2.07;1.87;;;9.50;99.90;;;;;;5031487;28;20182;-84
2022/11/05 08:49:03;;;;;;;2.90;2.07;;;9.60;99.90;;;;;;5031528;28;20183;-84
2022/11/05 08:51:30;;;;;;;3.23;2.10;;;9.60;99.90;;;;;;5031976;28;20261;-84
2022/11/05 08:53:55;;;;;;;2.93;2.10;;;9.70;99.90;;;;;;5032050;28;20203;-84
2022/11/05 08:56:24;;;;;;;3.00;2.50;;;9.70;99.90;;;;;;5032069;28;20190;-85
2022/11/05 08:58:50;;;;;;;3.07;2.67;;;9.80;99.90;;;;;;5032074;28;20174;-84
2022/11/05 09:01:16;;;;;;;4.17;3.20;;;9.80;99.90;;;;;;5032120;28;20540;-84
2022/11/05 09:03:42;;;;;;;3.90;3.50;;;9.80;99.90;;;;;;5031760;28;20206;-84
2022/11/05 09:06:08;;;;;;;4.00;3.20;;;9.80;99.90;;;;;;5013606;28;20191;-84
2022/11/05 09:08:34;;;;;;;3.90;3.50;;;9.80;99.90;;;;;;5011059;28;20184;-84
2022/11/05 09:11:00;;;;;;;3.43;3.13;;;9.80;99.90;;;;;;5028377;28;20211;-84
2022/11/05 09:13:26;;;;;;;5.83;3.60;;;9.70;99.90;;;;;;5012130;28;20203;-84
2022/11/05 09:15:52;;;;;;;3.47;3.17;;;9.60;99.90;;;;;;5011650;28;20179;-84
2022/11/05 09:18:19;;;;;;;4.00;3.27;;;9.60;99.90;;;;;;5011760;28;20179;-84
2022/11/05 09:20:45;;;;;;;4.43;3.70;;;9.50;99.90;;;;;;5011656;28;20179;-84
2022/11/05 09:23:15;;;;;;;4.13;3.73;;;9.50;99.90;;;;;;5028209;28;20298;-84
2022/11/05 09:25:41;;;;;;;4.03;3.63;;;9.50;99.90;;;;;;5028086;28;20178;-85
2022/11/05 09:28:20;;;;;;;5.23;3.50;;;9.50;99.90;;;;;;5027659;28;20205;-84
2022/11/05 09:30:48;;;;;;;4.67;3.23;;;9.40;99.90;;;;;;5027595;28;20183;-85
2022/11/05 09:33:15;;;;;;;3.17;2.87;;;9.50;99.90;;;;;;5010543;28;20214;-85
2022/11/05 09:35:41;;;;;;;3.47;3.17;;;9.50;99.90;;;;;;5037635;28;20179;-85
2022/11/05 09:38:07;;;;;;;3.63;2.90;;;9.60;99.90;;;;;;5011811;28;20245;-85
2022/11/05 09:40:45;;;;;;;3.47;2.93;;;9.60;99.90;;;;;;5028083;28;20734;-85
2022/11/05 09:43:19;;;;;;;4.23;3.10;;;9.60;99.90;;;;;;5011559;28;20203;-85
2022/11/05 09:45:50;;;;;;;3.13;2.83;;;9.50;99.90;;;;;;5012784;28;20167;-85
2022/11/05 09:48:18;;;;;;;4.03;2.97;;;9.60;99.90;;;;;;5027669;28;20210;-84
2022/11/05 09:50:45;;;;;;;3.30;2.80;;;9.70;99.90;;;;;;5027620;28;20286;-85
2022/11/05 09:53:18;;;;;;;2.97;2.67;;;9.70;99.90;;;;;;5028213;28;20195;-85
2022/11/05 09:55:49;;;;;;;3.70;2.87;;;9.80;99.90;;;;;;5044417;28;20209;-85
2022/11/05 09:58:22;;;;;;;4.00;3.00;;;9.90;99.90;;;;;;5044080;28;20168;-85
2022/11/05 10:00:51;;;;;;;4.63;2.93;;;9.90;99.90;;;;;;5027894;28;20167;-85
2022/11/05 10:03:21;;;;;;;3.93;2.80;;;10.00;99.90;;;;;;5044241;28;20286;-85
2022/11/05 10:05:49;;;;;;;3.33;3.03;;;10.00;99.90;;;;;;5011606;28;20286;-85
2022/11/05 10:08:39;;;;;;;3.33;3.00;;;10.00;99.90;;;;;;5011232;28;20180;-85
2022/11/05 10:11:17;;;;;;;3.50;3.17;;;10.10;99.90;;;;;;5011508;28;20199;-85
2022/11/05 10:14:05;;;;;;;3.47;3.17;;;10.10;99.90;;;;;;5011179;28;20207;-85
2022/11/05 10:16:41;;;;;;;3.50;3.13;;;10.20;99.90;;;;;;5011221;28;20168;-85
2022/11/05 10:19:26;;;;;;;3.47;3.17;;;10.20;99.90;;;;;;5027869;28;20163;-84
2022/11/05 10:22:07;;;;;;;4.03;3.53;;;10.20;99.90;;;;;;5014185;28;20259;-85
2022/11/05 10:24:33;;;;;;;4.50;4.10;;;10.30;99.90;;;;;;5014918;28;20210;-85
2022/11/05 10:26:59;;;;;;;4.43;4.03;;;10.30;99.90;;;;;;5014621;28;20831;-85
2022/11/05 10:29:28;;;;;;;5.40;4.80;;;10.40;99.90;;;;;;5014883;28;20187;-85
2022/11/05 10:31:56;;;;;;;4.90;4.40;;;10.50;99.90;;;;;;5031223;28;20203;-84
2022/11/05 10:34:27;;;;;;;4.87;4.37;;;10.50;99.90;;;;;;5017865;28;20203;-85
2022/11/05 10:36:53;;;;;;;4.73;4.33;;;10.60;99.90;;;;;;5034238;28;20174;-85
2022/11/05 10:39:20;;;;;;;4.20;3.80;;;10.50;99.90;;;;;;5051183;28;20316;-85
2022/11/05 10:41:51;;;;;;;5.17;4.67;;;10.60;99.90;;;;;;5034283;28;20179;-85
2022/11/05 10:44:40;;;;;;;15.30;10.13;;;10.60;99.90;;;;;;5034069;28;20207;-84
2022/11/05 10:47:28;;;;;;;10.23;6.87;;;10.70;99.90;;;;;;5050713;28;20173;-85
2022/11/05 10:50:00;;;;;;;5.20;4.70;;;10.70;99.90;;;;;;5034279;28;20187;-85
2022/11/05 10:52:41;;;;;;;7.00;5.07;;;10.80;99.90;;;;;;5034114;28;20204;-85
2022/11/05 10:55:34;;;;;;;9.50;8.47;;;10.90;99.90;;;;;;5034009;28;20179;-85
2022/11/05 10:58:13;;;;;;;10.47;9.37;;;11.00;99.90;;;;;;5017136;28;20797;-85
2022/11/05 11:00:41;;;;;;;4.93;4.43;;;11.10;99.90;;;;;;5034230;28;20172;-85
2022/11/05 11:03:33;;;;;;;4.53;4.13;;;11.20;99.90;;;;;;5033859;28;20266;-85
2022/11/05 11:06:15;;;;;;;4.73;3.93;;;11.30;99.90;;;;;;5017571;28;20218;-85
2022/11/05 11:08:43;;;;;;;4.60;4.20;;;11.30;99.90;;;;;;5030669;28;20166;-85
2022/11/05 11:11:12;;;;;;;4.63;3.70;;;11.30;99.90;;;;;;5013843;28;20212;-85
2022/11/05 11:13:59;;;;;;;3.70;3.30;;;11.30;99.90;;;;;;5013925;28;20285;-84
2022/11/05 11:16:27;;;;;;;3.63;3.13;;;11.30;99.90;;;;;;5013926;28;20183;-85
2022/11/05 11:18:59;;;;;;;4.70;3.20;;;11.20;99.90;;;;;;5030124;28;20294;-85
2022/11/05 11:21:27;;;;;;;6.03;5.43;;;11.10;99.90;;;;;;5030812;28;20260;-85
2022/11/05 11:23:54;;;;;;;7.90;7.10;;;11.00;99.90;;;;;;5030066;28;20212;-85
2022/11/05 11:26:22;;;;;;;6.10;5.50;;;10.90;99.90;;;;;;5014141;28;20221;-85
2022/11/05 11:29:11;;;;;;;3.80;3.50;;;10.90;99.90;;;;;;5029999;28;20193;-85
2022/11/05 11:31:39;;;;;;;2.80;2.60;;;10.90;99.90;;;;;;5014466;28;20270;-85
2022/11/05 11:34:25;;;;;;;3.73;1.93;;;10.80;99.90;;;;;;5030886;28;20200;-85
2022/11/05 11:36:55;;;;;;;1.50;1.40;;;10.70;99.90;;;;;;5033080;28;20175;-85
2022/11/05 11:39:27;;;;;;;2.13;1.93;;;10.70;99.90;;;;;;5033556;28;20179;-85
2022/11/05 11:42:05;;;;;;;2.10;1.90;;;10.60;99.90;;;;;;5033165;28;20184;-84
2022/11/05 11:44:40;;;;;;;2.13;1.93;;;10.60;99.90;;;;;;5033157;28;20204;-85
2022/11/05 11:47:13;;;;;;;2.27;2.07;;;10.60;99.90;;;;;;5049667;28;20171;-84
2022/11/05 11:50:00;;;;;;;2.63;2.17;;;10.60;99.90;;;;;;5033207;28;20190;-85
2022/11/05 11:52:34;;;;;;;2.23;2.03;;;10.50;99.90;;;;;;5032844;28;20206;-85
2022/11/05 11:55:17;;;;;;;2.17;1.97;;;10.50;99.90;;;;;;5032971;28;20204;-85
2022/11/05 11:57:45;;;;;;;3.73;2.90;;;10.50;99.90;;;;;;5033148;28;20168;-85
2022/11/05 12:00:12;;;;;;;4.63;2.80;;;10.50;99.90;;;;;;5032981;28;20178;-84
2022/11/05 12:03:08;;;;;;;3.00;2.70;;;10.50;99.90;;;;;;5032666;28;20189;-85
2022/11/05 12:05:45;;;;;;;3.33;3.03;;;10.50;99.90;;;;;;5019725;28;20196;-85
2022/11/05 12:08:50;;;;;;;3.67;3.30;;;10.50;99.90;;;;;;5012874;28;20167;-85
2022/11/05 12:11:38;;;;;;;3.73;3.33;;;10.50;99.90;;;;;;5012496;28;20226;-85
2022/11/05 12:14:28;;;;;;;3.77;3.40;;;10.60;99.90;;;;;;5012922;28;20202;-85
2022/11/05 12:17:25;;;;;;;4.43;3.37;;;10.60;99.90;;;;;;5012553;28;20168;-85
2022/11/05 12:20:32;;;;;;;3.63;3.13;;;10.60;99.90;;;;;;5012484;28;20265;-85
2022/11/05 12:23:28;;;;;;;3.10;2.80;;;10.60;99.90;;;;;;5011449;28;20264;-85
2022/11/05 12:26:12;;;;;;;3.37;2.80;;;10.60;99.90;;;;;;5012620;28;20175;-84
2022/11/05 12:29:08;;;;;;;4.10;3.03;;;10.70;99.90;;;;;;5012247;28;20191;-85
2022/11/05 12:32:11;;;;;;;3.47;2.63;;;10.80;99.90;;;;;;5029359;28;20312;-85
2022/11/05 12:34:46;;;;;;;4.00;3.60;;;10.90;99.90;;;;;;5029026;28;20210;-84
2022/11/05 12:37:40;;;;;;;6.23;4.63;;;10.90;99.90;;;;;;5028946;28;20170;-84
2022/11/05 12:40:18;;;;;;;6.20;3.83;;;11.00;99.90;;;;;;5028731;28;20179;-84
2022/11/05 12:42:51;;;;;;;4.30;3.63;;;11.00;99.90;;;;;;5028732;28;20191;-84
2022/11/05 12:45:32;;;;;;;5.10;4.40;;;11.00;99.90;;;;;;4996082;28;20177;-85
2022/11/05 12:48:07;;;;;;;5.57;3.30;;;11.00;99.90;;;;;;5012384;28;20182;-85
2022/11/05 12:50:42;;;;;;;6.77;3.40;;;11.00;99.90;;;;;;5012241;28;20179;-84
2022/11/05 12:53:23;;;;;;;6.03;3.77;;;11.00;99.90;;;;;;5028801;28;20226;-84
2022/11/05 12:55:51;;;;;;;4.27;3.87;;;11.10;99.90;;;;;;5028453;28;20180;-84
2022/11/05 12:58:44;;;;;;;4.57;4.00;;;11.00;99.90;;;;;;5028575;28;20188;-84
2022/11/05 13:01:16;;;;;;;4.63;3.77;;;10.90;99.90;;;;;;5012496;28;20188;-84
2022/11/05 13:03:59;;;;;;;4.50;3.87;;;10.90;99.90;;;;;;5012039;28;20227;-84
2022/11/05 13:06:40;;;;;;;5.20;4.10;;;10.80;99.90;;;;;;5012668;28;20210;-85
2022/11/05 13:09:07;;;;;;;4.17;3.73;;;10.70;99.90;;;;;;5013857;28;20179;-84
2022/11/05 13:11:42;;;;;;;4.50;3.67;;;10.70;99.90;;;;;;5029068;28;20200;-84
2022/11/05 13:14:25;;;;;;;5.00;4.30;;;10.70;99.90;;;;;;5027568;28;20226;-84
2022/11/05 13:17:21;;;;;;;4.97;4.47;;;10.70;99.90;;;;;;5011709;28;20167;-84
2022/11/05 13:20:14;;;;;;;4.87;3.90;;;10.70;99.90;;;;;;4994843;28;20190;-85
2022/11/05 13:23:34;;;;;;;6.00;4.90;;;10.70;99.90;;;;;;5011803;28;20191;-84
2022/11/05 13:26:12;;;;;;;8.03;5.60;;;10.70;99.90;;;;;;4997477;28;20222;-84
2022/11/05 13:28:52;;;;;;;5.40;4.90;;;10.80;99.90;;;;;;5028038;28;20199;-84
2022/11/05 13:31:25;;;;;;;6.37;4.20;;;10.80;99.90;;;;;;5011534;28;20217;-84
2022/11/05 13:33:53;;;;;;;5.57;4.30;;;10.90;99.90;;;;;;5011449;28;20207;-85
2022/11/05 13:39:13;;;;;;;3.50;3.20;;;10.90;99.90;;;;;;5033077;28;20278;-85
2022/11/05 13:42:00;;;;;;;4.37;3.23;;;10.90;99.90;;;;;;5015065;28;20242;-85
2022/11/05 13:44:29;;;;;;;4.83;3.97;;;10.90;99.90;;;;;;5015002;28;20203;-85
2022/11/05 13:47:40;;;;;;;4.57;3.80;;;10.90;99.90;;;;;;5014773;28;20206;-83
2022/11/05 13:50:40;;;;;;;4.17;3.70;;;10.80;99.90;;;;;;5014453;28;20250;-84
2022/11/05 13:53:20;;;;;;;10.63;5.30;;;10.80;99.90;;;;;;5014527;28;20696;-84
2022/11/05 13:56:09;;;;;;;7.53;4.30;;;10.70;99.90;;;;;;5016225;28;20173;-84
2022/11/05 13:58:50;;;;;;;4.47;3.93;;;10.70;99.90;;;;;;5034981;28;20164;-84
2022/11/05 14:01:34;;;;;;;4.50;4.10;;;10.60;99.90;;;;;;5019068;28;20206;-84
2022/11/05 14:04:00;;;;;;;5.43;4.13;;;10.60;99.90;;;;;;5018334;28;20688;-84
2022/11/05 14:06:30;;;;;;;5.53;3.73;;;10.60;99.90;;;;;;5035119;28;20287;-84